Terminal Aerodrome Forecast
Issued by NWS

Home | Current Version | Previous Version | Text Only | Print | Product List | Glossary On
Versions: 1 2 3 4 5 6 7 8 9 10 11 12 13 14
000
FTAK31 PAJN 010540
TAFAPG
TAF
PAPG 010540Z 0106/0206 09004KT P6SM -RA SCT025 BKN035 OVC050
      TEMPO 0107/0111 00000KT 6SM -RA BR BKN025 OVC035
     FM011100 09005KT P6SM -RA BKN025 OVC035
      AMD LTD TO CLD VIS AND WIND 0106/0115=

USA.gov is the U.S. government's official web portal to all federal, state and local government web resources and services.